Time;durP1;ratioP1;P1;durP2;ratioP2;P2;SDS_P1;SDS_P2;PMS_P1;PMS_P2;Temp;Humidity;BMP_temperature;BMP_pressure;BME280_temperature;BME280_humidity;BME280_pressure;Samples;Min_cycle;Max_cycle;Signal;HPM_P1;HPM_P2
2023/09/23 00:00:49;;;;;;;0.80;0.50;;;;;;;16.40;98.46;100095.13;4986100;28;20489;-71
2023/09/23 00:03:19;;;;;;;0.90;0.60;;;;;;;16.35;99.50;100100.53;4986459;28;20453;-71
2023/09/23 00:05:48;;;;;;;1.03;0.93;;;;;;;16.40;98.46;100107.94;4984403;28;20786;-73
2023/09/23 00:08:18;;;;;;;0.80;0.47;;;;;;;16.08;98.58;100106.00;4990868;28;20430;-73
2023/09/23 00:10:50;;;;;;;0.80;0.40;;;;;;;16.69;98.40;100109.31;5000655;28;20962;-73
2023/09/23 00:13:21;;;;;;;0.80;0.40;;;;;;;16.53;98.21;100126.63;4983739;28;20460;-73
2023/09/23 00:15:51;;;;;;;0.80;0.50;;;;;;;16.17;97.92;100130.13;4983675;28;20460;-73
2023/09/23 00:18:20;;;;;;;0.80;0.50;;;;;;;16.20;99.84;100140.50;4983810;28;20594;-72
2023/09/23 00:20:49;;;;;;;1.10;0.87;;;;;;;16.26;97.49;100136.75;4985051;28;20593;-73
2023/09/23 00:23:20;;;;;;;0.80;0.60;;;;;;;16.19;99.66;100138.84;4979054;28;20773;-73
2023/09/23 00:25:51;;;;;;;0.87;0.70;;;;;;;16.15;98.86;100138.56;4976770;28;20804;-72
2023/09/23 00:28:20;;;;;;;0.80;0.40;;;;;;;16.08;99.01;100149.66;4976544;28;20523;-73
2023/09/23 00:30:50;;;;;;;0.80;0.57;;;;;;;16.12;97.97;100154.63;4975598;28;20458;-73
2023/09/23 00:33:19;;;;;;;0.87;0.60;;;;;;;16.05;99.61;100149.34;4974114;28;20924;-74
2023/09/23 00:35:48;;;;;;;0.80;0.50;;;;;;;16.15;99.75;100148.63;4979446;28;21010;-70
2023/09/23 00:38:19;;;;;;;0.80;0.40;;;;;;;15.96;99.40;100149.00;4976770;28;20427;-73
2023/09/23 00:40:51;;;;;;;1.00;0.80;;;;;;;15.84;99.98;100142.81;4975966;28;20452;-71
2023/09/23 00:43:21;;;;;;;0.80;0.40;;;;;;;16.05;100.00;100138.44;4972894;28;20406;-72
2023/09/23 00:45:51;;;;;;;2.10;0.97;;;;;;;15.82;99.22;100134.09;4973739;28;20462;-73
2023/09/23 00:48:21;;;;;;;1.00;0.70;;;;;;;15.52;100.00;100136.44;4975170;28;20427;-73
2023/09/23 00:50:53;;;;;;;0.80;0.50;;;;;;;15.57;100.00;100134.59;4979422;28;20951;-72
2023/09/23 00:53:25;;;;;;;0.80;0.43;;;;;;;15.75;100.00;100128.00;4977913;28;20435;-73
2023/09/23 00:55:56;;;;;;;1.33;1.23;;;;;;;15.92;100.00;100122.47;4981150;28;20466;-73
2023/09/23 00:58:26;;;;;;;1.00;0.80;;;;;;;15.99;99.46;100117.63;4971275;28;20765;-74
2023/09/23 01:00:56;;;;;;;0.80;0.40;;;;;;;15.98;97.97;100105.88;4971297;28;20454;-71
2023/09/23 01:03:27;;;;;;;0.80;0.40;;;;;;;16.17;98.36;100111.00;4967476;28;20872;-73
2023/09/23 01:06:05;;;;;;;0.90;0.63;;;;;;;16.06;98.13;100105.44;4973710;28;20456;-73
2023/09/23 01:08:35;;;;;;;0.80;0.40;;;;;;;16.19;97.07;100097.91;4972511;28;20496;-73
2023/09/23 01:11:08;;;;;;;0.80;0.40;;;;;;;15.91;97.60;100096.25;4973578;28;20470;-73
2023/09/23 01:13:38;;;;;;;0.97;0.60;;;;;;;15.97;98.32;100098.81;4975326;28;20412;-73
2023/09/23 01:16:13;;;;;;;0.90;0.57;;;;;;;15.90;97.88;100092.72;4971579;28;20432;-71
2023/09/23 01:18:45;;;;;;;1.73;0.80;;;;;;;16.02;97.35;100098.03;4978087;28;20886;-70
2023/09/23 01:21:15;;;;;;;0.80;0.40;;;;;;;15.91;97.45;100091.63;4971528;28;20434;-72
2023/09/23 01:23:46;;;;;;;0.80;0.40;;;;;;;15.86;97.16;100102.50;4970142;28;20402;-71
2023/09/23 01:26:17;;;;;;;0.80;0.40;;;;;;;15.99;97.18;100104.81;4974178;28;20530;-73
2023/09/23 01:28:48;;;;;;;0.80;0.40;;;;;;;15.96;96.15;100107.22;4974686;28;20464;-71
2023/09/23 01:31:21;;;;;;;0.80;0.40;;;;;;;15.86;97.34;100118.03;4973928;28;20430;-73
2023/09/23 01:33:51;;;;;;;0.80;0.50;;;;;;;15.83;97.95;100119.34;4973525;28;20421;-73
2023/09/23 01:36:20;;;;;;;0.90;0.50;;;;;;;15.76;98.26;100110.56;4977005;28;20421;-74
2023/09/23 01:38:50;;;;;;;0.83;0.47;;;;;;;15.64;98.78;100127.03;4977768;28;20435;-72
2023/09/23 01:41:22;;;;;;;0.80;0.40;;;;;;;15.62;98.81;100133.84;4973243;28;20449;-73
2023/09/23 01:43:51;;;;;;;0.80;0.40;;;;;;;15.54;98.96;100126.91;4973618;28;20472;-75
2023/09/23 01:46:20;;;;;;;0.80;0.50;;;;;;;15.72;98.69;100138.59;4971640;28;20472;-74
2023/09/23 01:48:49;;;;;;;0.90;0.50;;;;;;;15.65;97.66;100145.06;4976962;28;20445;-72
2023/09/23 01:51:18;;;;;;;0.80;0.40;;;;;;;15.68;97.23;100138.28;4988457;28;20908;-73
2023/09/23 01:53:47;;;;;;;0.80;0.50;;;;;;;15.65;97.88;100127.88;4975167;28;20412;-73
2023/09/23 01:56:18;;;;;;;0.80;0.40;;;;;;;15.51;99.18;100126.59;4976739;28;20900;-73
2023/09/23 01:58:48;;;;;;;0.80;0.50;;;;;;;15.32;99.97;100133.41;4971098;28;20432;-71
2023/09/23 02:01:19;;;;;;;0.80;0.40;;;;;;;15.59;98.29;100131.59;4969716;28;20478;-73
2023/09/23 02:03:49;;;;;;;0.80;0.40;;;;;;;15.59;98.35;100129.69;4971798;28;20487;-72
2023/09/23 02:06:19;;;;;;;1.30;0.77;;;;;;;15.49;98.56;100134.19;4976961;28;20959;-71
2023/09/23 02:08:49;;;;;;;0.80;0.50;;;;;;;15.73;96.90;100132.06;4974426;28;20512;-72
2023/09/23 02:11:22;;;;;;;1.33;1.17;;;;;;;15.44;98.35;100131.41;4978671;28;20810;-72
2023/09/23 02:13:52;;;;;;;0.80;0.40;;;;;;;15.65;97.63;100138.78;4973077;28;20407;-72
2023/09/23 02:16:23;;;;;;;1.27;1.17;;;;;;;15.81;96.16;100147.97;4981132;28;20439;-72
2023/09/23 02:18:54;;;;;;;0.90;0.63;;;;;;;15.73;96.84;100148.44;4974222;28;20410;-72
2023/09/23 02:21:27;;;;;;;0.80;0.40;;;;;;;15.49;97.52;100145.09;4976978;28;20970;-73
2023/09/23 02:23:58;;;;;;;0.80;0.50;;;;;;;15.40;98.36;100147.41;4969671;28;20483;-73
2023/09/23 02:26:30;;;;;;;0.80;0.40;;;;;;;15.38;98.05;100149.59;4990598;28;20482;-72
2023/09/23 02:29:01;;;;;;;0.80;0.40;;;;;;;15.42;99.00;100145.28;4980991;28;20425;-74
2023/09/23 02:31:31;;;;;;;0.90;0.50;;;;;;;15.60;97.75;100146.88;4976151;28;20454;-74
2023/09/23 02:34:02;;;;;;;0.80;0.40;;;;;;;15.27;98.27;100157.84;4974604;28;20513;-72
2023/09/23 02:36:34;;;;;;;0.80;0.40;;;;;;;15.20;98.23;100161.56;4973313;28;20538;-73
2023/09/23 02:39:06;;;;;;;0.90;0.60;;;;;;;15.26;99.06;100165.19;4980235;28;20442;-72
2023/09/23 02:41:37;;;;;;;0.80;0.43;;;;;;;15.32;99.23;100161.47;4985549;28;20446;-71
2023/09/23 02:44:08;;;;;;;0.80;0.40;;;;;;;15.37;98.52;100160.72;4972749;28;20442;-73
2023/09/23 02:46:39;;;;;;;0.80;0.40;;;;;;;15.19;99.43;100167.28;4980165;28;20807;-73
2023/09/23 02:49:10;;;;;;;0.80;0.40;;;;;;;15.21;99.59;100170.56;4975918;28;20501;-73
2023/09/23 02:51:41;;;;;;;0.80;0.40;;;;;;;15.24;98.94;100178.28;4977512;28;20474;-73
2023/09/23 02:54:13;;;;;;;0.90;0.50;;;;;;;15.19;98.20;100176.28;4979590;28;20430;-72
2023/09/23 02:56:47;;;;;;;0.80;0.40;;;;;;;15.17;98.90;100180.34;4976092;28;20492;-71
2023/09/23 02:59:25;;;;;;;0.80;0.40;;;;;;;14.98;98.96;100179.78;4978343;28;20479;-73
2023/09/23 03:01:57;;;;;;;0.80;0.40;;;;;;;15.00;99.23;100188.53;4977948;28;20867;-74
2023/09/23 03:04:32;;;;;;;0.80;0.40;;;;;;;14.98;99.61;100187.94;4997686;28;20722;-73
2023/09/23 03:07:04;;;;;;;0.90;0.60;;;;;;;15.05;99.32;100187.78;4987172;28;21038;-72
2023/09/23 03:09:34;;;;;;;0.80;0.40;;;;;;;14.77;99.18;100202.28;4975215;28;20563;-73
2023/09/23 03:12:08;;;;;;;0.80;0.50;;;;;;;14.87;99.13;100201.63;4974488;28;20441;-71
2023/09/23 03:14:42;;;;;;;1.00;0.80;;;;;;;15.01;98.09;100203.78;4970946;28;20417;-71
2023/09/23 03:17:21;;;;;;;0.80;0.40;;;;;;;15.19;96.88;100209.00;4975050;28;20423;-71
2023/09/23 03:19:52;;;;;;;0.90;0.60;;;;;;;14.98;98.69;100212.47;4974560;28;20485;-71
2023/09/23 03:22:24;;;;;;;0.80;0.40;;;;;;;15.10;98.22;100212.41;4972420;28;20545;-72
2023/09/23 03:24:54;;;;;;;0.80;0.40;;;;;;;15.18;97.57;100211.97;4974371;28;20468;-72
2023/09/23 03:27:28;;;;;;;0.90;0.50;;;;;;;15.00;97.25;100210.34;4977616;28;20967;-72
2023/09/23 03:30:00;;;;;;;0.80;0.40;;;;;;;15.05;97.78;100215.88;4971618;28;20432;-71
2023/09/23 03:32:34;;;;;;;0.80;0.40;;;;;;;15.00;97.57;100218.50;4973375;28;20848;-73
2023/09/23 03:35:07;;;;;;;0.80;0.40;;;;;;;14.78;97.68;100217.56;4974645;28;20786;-70
2023/09/23 03:37:38;;;;;;;0.80;0.40;;;;;;;14.80;97.97;100223.59;4970834;28;20450;-72
2023/09/23 03:40:09;;;;;;;0.80;0.40;;;;;;;14.90;98.15;100226.50;4970222;28;20798;-73
2023/09/23 03:42:41;;;;;;;0.80;0.40;;;;;;;14.91;98.08;100228.13;4974174;28;20424;-74
2023/09/23 03:45:11;;;;;;;0.80;0.40;;;;;;;15.04;97.35;100224.28;4977102;28;20444;-72
2023/09/23 03:47:41;;;;;;;0.80;0.40;;;;;;;14.96;97.60;100225.50;4981707;28;20478;-71
2023/09/23 03:50:12;;;;;;;0.80;0.50;;;;;;;14.91;97.63;100219.97;4978563;28;20420;-70
2023/09/23 03:52:42;;;;;;;0.90;0.50;;;;;;;14.96;97.62;100217.31;4975035;28;20767;-72
2023/09/23 03:55:13;;;;;;;0.80;0.40;;;;;;;14.95;98.07;100221.16;4981098;28;20466;-72
2023/09/23 03:57:46;;;;;;;0.80;0.40;;;;;;;15.05;96.48;100225.94;4975739;28;20451;-71
2023/09/23 04:00:17;;;;;;;0.80;0.40;;;;;;;14.94;95.92;100235.81;4988100;28;20472;-73
2023/09/23 04:02:48;;;;;;;0.90;0.50;;;;;;;14.94;96.70;100244.00;4980464;28;20843;-70
2023/09/23 04:05:19;;;;;;;0.80;0.40;;;;;;;15.02;96.79;100245.47;4990431;28;20445;-73
2023/09/23 04:07:50;;;;;;;0.80;0.40;;;;;;;14.85;96.41;100239.22;4976760;28;20433;-71
2023/09/23 04:10:23;;;;;;;0.80;0.43;;;;;;;14.84;97.43;100241.09;4989619;28;20410;-72
2023/09/23 04:12:56;;;;;;;0.80;0.40;;;;;;;14.79;97.25;100251.91;4975885;28;20404;-73
2023/09/23 04:15:27;;;;;;;0.80;0.40;;;;;;;14.86;97.49;100257.22;4977767;28;20482;-71
2023/09/23 04:17:58;;;;;;;0.80;0.40;;;;;;;14.94;97.14;100257.63;4971440;28;20433;-72
2023/09/23 04:20:28;;;;;;;0.80;0.40;;;;;;;14.88;97.11;100260.50;4982310;28;20977;-72
2023/09/23 04:22:58;;;;;;;0.80;0.50;;;;;;;14.87;96.75;100256.13;4971492;28;20916;-72
2023/09/23 04:25:29;;;;;;;0.80;0.40;;;;;;;14.98;96.93;100264.22;4977605;28;20455;-72
2023/09/23 04:28:01;;;;;;;0.80;0.50;;;;;;;15.11;95.85;100271.25;4978700;28;20577;-71
2023/09/23 04:30:32;;;;;;;0.80;0.40;;;;;;;15.14;94.35;100271.59;4973152;28;20455;-73
2023/09/23 04:33:02;;;;;;;0.80;0.40;;;;;;;14.85;95.35;100266.44;4972434;28;20428;-74
2023/09/23 04:35:34;;;;;;;0.80;0.50;;;;;;;14.80;95.69;100264.47;4975398;28;20472;-73
2023/09/23 04:38:05;;;;;;;0.80;0.40;;;;;;;14.56;96.95;100279.25;4976588;28;20452;-73
2023/09/23 04:40:35;;;;;;;0.80;0.40;;;;;;;14.33;98.10;100288.28;4969380;28;20454;-73
2023/09/23 04:43:10;;;;;;;0.80;0.40;;;;;;;14.69;98.31;100292.56;4973248;28;20405;-72
2023/09/23 04:45:41;;;;;;;0.80;0.40;;;;;;;14.55;98.32;100302.94;4973205;28;20417;-73
2023/09/23 04:48:12;;;;;;;0.80;0.43;;;;;;;14.71;97.03;100295.88;4976188;28;20459;-72
2023/09/23 04:50:46;;;;;;;0.80;0.40;;;;;;;14.50;97.62;100296.56;4974548;28;20819;-72
2023/09/23 04:53:16;;;;;;;0.80;0.40;;;;;;;14.73;96.90;100296.44;4974435;28;20769;-72
2023/09/23 04:55:46;;;;;;;0.90;0.50;;;;;;;14.96;94.35;100307.22;4970940;28;20455;-73
2023/09/23 04:58:17;;;;;;;0.80;0.40;;;;;;;14.95;95.06;100297.44;4982940;28;20445;-72
2023/09/23 05:00:47;;;;;;;0.80;0.40;;;;;;;14.82;94.31;100311.31;4973232;28;20524;-73
2023/09/23 05:03:19;;;;;;;0.80;0.40;;;;;;;15.06;94.65;100315.59;4971440;28;20428;-74
2023/09/23 05:05:50;;;;;;;0.80;0.40;;;;;;;15.09;92.08;100328.75;4983521;28;20833;-71
2023/09/23 05:08:20;;;;;;;0.80;0.40;;;;;;;15.09;93.36;100326.00;4972873;28;20440;-72
2023/09/23 05:11:06;;;;;;;0.80;0.40;;;;;;;14.91;93.26;100326.19;4971065;28;20474;-71
2023/09/23 05:13:37;;;;;;;0.90;0.60;;;;;;;15.20;91.38;100322.38;4970726;28;20488;-73
2023/09/23 05:16:07;;;;;;;0.80;0.40;;;;;;;15.00;92.66;100332.94;4973122;28;20404;-72
2023/09/23 05:18:38;;;;;;;0.80;0.40;;;;;;;15.40;90.30;100338.25;4972705;28;20408;-74
2023/09/23 05:21:09;;;;;;;0.80;0.40;;;;;;;15.27;89.68;100341.31;4990398;28;20481;-71
2023/09/23 05:23:41;;;;;;;0.90;0.50;;;;;;;15.02;90.90;100347.13;4974544;28;20424;-73
2023/09/23 05:26:32;;;;;;;;;;;;;;;;;;;;;
2023/09/23 05:29:28;;;;;;;0.80;0.40;;;;;;;14.72;93.27;100354.69;4987398;28;20461;-72
2023/09/23 05:32:00;;;;;;;0.80;0.40;;;;;;;14.56;93.09;100358.22;4973284;28;20445;-71
2023/09/23 05:34:31;;;;;;;0.90;0.53;;;;;;;15.06;92.44;100355.63;4974951;28;20522;-73
2023/09/23 05:37:01;;;;;;;0.80;0.40;;;;;;;15.08;90.21;100362.50;4980333;28;20819;-72
2023/09/23 05:39:34;;;;;;;0.80;0.40;;;;;;;14.78;91.27;100375.53;4985186;28;20997;-72
2023/09/23 05:42:05;;;;;;;0.80;0.40;;;;;;;14.85;91.93;100372.69;4979380;28;20450;-72
2023/09/23 05:44:37;;;;;;;0.80;0.40;;;;;;;14.64;90.89;100382.34;4985374;28;20505;-72
2023/09/23 05:47:08;;;;;;;0.80;0.40;;;;;;;14.70;91.33;100390.38;4973284;28;20518;-72
2023/09/23 05:49:39;;;;;;;0.80;0.50;;;;;;;14.68;90.96;100387.06;4971789;28;20537;-73
2023/09/23 05:52:10;;;;;;;0.90;0.50;;;;;;;14.92;90.84;100393.25;4971527;28;20554;-73
2023/09/23 05:54:41;;;;;;;0.80;0.40;;;;;;;14.94;89.28;100404.75;4966224;28;20499;-74
2023/09/23 05:57:11;;;;;;;0.80;0.40;;;;;;;14.85;89.41;100419.00;4973180;28;20477;-72
2023/09/23 05:59:43;;;;;;;0.80;0.47;;;;;;;14.81;89.12;100409.66;4991973;28;20480;-70
2023/09/23 06:02:14;;;;;;;0.80;0.40;;;;;;;14.92;89.13;100423.22;4969326;28;20811;-72
2023/09/23 06:04:44;;;;;;;0.80;0.50;;;;;;;14.87;87.81;100420.38;4978215;28;20461;-72
2023/09/23 06:07:14;;;;;;;0.80;0.40;;;;;;;14.84;88.40;100420.06;4985245;28;20843;-72
2023/09/23 06:09:45;;;;;;;0.80;0.50;;;;;;;14.98;87.42;100422.25;4983893;28;20529;-73
2023/09/23 06:12:15;;;;;;;0.80;0.50;;;;;;;15.16;86.96;100427.50;4977486;28;20512;-73
2023/09/23 06:14:47;;;;;;;0.80;0.40;;;;;;;15.41;85.68;100426.31;4983302;28;20785;-71
2023/09/23 06:17:17;;;;;;;0.80;0.40;;;;;;;15.03;84.40;100430.53;4991503;28;20948;-73
2023/09/23 06:19:48;;;;;;;0.80;0.50;;;;;;;15.08;85.93;100432.53;4980206;28;20470;-72
2023/09/23 06:22:18;;;;;;;0.80;0.43;;;;;;;15.11;85.72;100437.47;4976368;28;20481;-73
2023/09/23 06:24:51;;;;;;;0.80;0.50;;;;;;;15.30;85.74;100440.88;4989007;28;20812;-73
2023/09/23 06:27:22;;;;;;;0.80;0.43;;;;;;;15.64;83.71;100439.84;4977324;28;20463;-69
2023/09/23 06:29:54;;;;;;;0.90;0.67;;;;;;;15.82;82.26;100445.09;4975866;28;20564;-71
2023/09/23 06:32:24;;;;;;;0.80;0.50;;;;;;;15.93;81.73;100441.44;4975509;28;20482;-72
2023/09/23 06:34:55;;;;;;;0.80;0.50;;;;;;;15.58;81.31;100449.03;4976463;28;20454;-72
2023/09/23 06:37:25;;;;;;;0.80;0.50;;;;;;;15.42;81.62;100449.81;4975410;28;20444;-72
2023/09/23 06:39:56;;;;;;;0.80;0.40;;;;;;;15.63;81.75;100454.59;4971761;28;20433;-73
2023/09/23 06:42:27;;;;;;;0.90;0.50;;;;;;;16.05;80.89;100455.84;4993641;28;20461;-72
2023/09/23 06:44:59;;;;;;;0.80;0.40;;;;;;;16.20;78.92;100454.44;4975846;28;20445;-71
2023/09/23 06:47:28;;;;;;;0.80;0.40;;;;;;;16.23;78.37;100457.47;4990638;28;20448;-73
2023/09/23 06:49:59;;;;;;;0.90;0.57;;;;;;;16.26;78.46;100467.09;4975089;28;20429;-72
2023/09/23 06:52:28;;;;;;;0.80;0.40;;;;;;;15.92;78.93;100464.38;4978718;28;20465;-73
2023/09/23 06:54:59;;;;;;;0.80;0.40;;;;;;;15.98;78.20;100477.00;4973140;28;20426;-72
2023/09/23 06:57:30;;;;;;;0.80;0.40;;;;;;;16.05;78.22;100472.22;4974034;28;20451;-71
2023/09/23 07:00:02;;;;;;;0.80;0.40;;;;;;;16.04;78.01;100486.94;4977498;28;20467;-70
2023/09/23 07:02:35;;;;;;;0.80;0.40;;;;;;;15.96;76.54;100489.25;4976722;28;21019;-72
2023/09/23 07:05:06;;;;;;;0.80;0.50;;;;;;;15.94;77.46;100491.41;4980251;28;20455;-71
2023/09/23 07:07:36;;;;;;;0.80;0.40;;;;;;;15.95;77.62;100493.88;4974918;28;20492;-71
2023/09/23 07:10:09;;;;;;;0.80;0.50;;;;;;;15.82;77.53;100493.38;4975196;28;20442;-70
2023/09/23 07:12:40;;;;;;;0.80;0.50;;;;;;;16.00;77.10;100495.88;4992549;28;20979;-72
2023/09/23 07:15:13;;;;;;;0.80;0.40;;;;;;;16.09;76.03;100500.69;4971504;28;20426;-72
2023/09/23 07:17:45;;;;;;;0.80;0.40;;;;;;;16.21;75.57;100502.50;4989537;28;20855;-71
2023/09/23 07:20:15;;;;;;;0.80;0.40;;;;;;;16.38;75.29;100514.22;4977882;28;20437;-68
2023/09/23 07:22:47;;;;;;;0.90;0.50;;;;;;;16.26;75.09;100521.69;4987811;28;20842;-71
2023/09/23 07:25:18;;;;;;;0.80;0.40;;;;;;;16.31;74.44;100513.59;4976043;28;20935;-70
2023/09/23 07:27:49;;;;;;;0.80;0.40;;;;;;;16.39;74.73;100521.34;4972385;28;20436;-71
2023/09/23 07:30:23;;;;;;;0.80;0.50;;;;;;;16.34;73.24;100534.94;4986613;28;20426;-71
2023/09/23 07:32:55;;;;;;;0.80;0.40;;;;;;;16.18;73.22;100535.75;4995469;28;20464;-71
2023/09/23 07:35:26;;;;;;;0.80;0.50;;;;;;;16.45;72.80;100520.38;4971789;28;20427;-71
2023/09/23 07:37:59;;;;;;;0.80;0.40;;;;;;;16.48;72.62;100525.31;4976028;28;20478;-72
2023/09/23 07:40:30;;;;;;;0.80;0.40;;;;;;;16.62;71.81;100528.56;4972765;28;20512;-71
2023/09/23 07:43:01;;;;;;;1.27;0.73;;;;;;;16.50;71.60;100531.38;4978705;28;20422;-70
2023/09/23 07:45:34;;;;;;;0.80;0.40;;;;;;;16.45;70.80;100536.75;4976235;28;20530;-71
2023/09/23 07:48:07;;;;;;;0.80;0.43;;;;;;;16.55;70.47;100547.84;4988602;28;20453;-73
2023/09/23 07:50:37;;;;;;;0.80;0.50;;;;;;;16.69;69.56;100548.34;4980556;28;20448;-75
2023/09/23 07:53:09;;;;;;;0.80;0.50;;;;;;;16.91;69.82;100554.66;4970589;28;20446;-72
2023/09/23 07:55:43;;;;;;;0.80;0.40;;;;;;;17.03;68.66;100551.84;4991497;28;20433;-70
2023/09/23 07:58:13;;;;;;;0.80;0.50;;;;;;;16.87;67.26;100554.34;4979414;28;20842;-72
2023/09/23 08:00:46;;;;;;;0.80;0.40;;;;;;;16.67;68.15;100556.78;4973483;28;20506;-70
2023/09/23 08:03:18;;;;;;;0.80;0.40;;;;;;;16.90;67.67;100563.94;4979138;28;20430;-73
2023/09/23 08:05:49;;;;;;;0.80;0.40;;;;;;;16.69;67.48;100564.75;4978799;28;20432;-70
2023/09/23 08:08:20;;;;;;;0.80;0.40;;;;;;;16.56;67.88;100571.31;4971378;28;20450;-71
2023/09/23 08:10:51;;;;;;;0.80;0.40;;;;;;;16.48;68.41;100571.75;4973246;28;20524;-72
2023/09/23 08:13:22;;;;;;;0.87;0.57;;;;;;;16.52;67.94;100570.16;4995198;28;20497;-72
2023/09/23 08:16:02;;;;;;;2.50;0.83;;;;;;;16.59;67.56;100570.88;4981111;28;20422;-73
2023/09/23 08:18:33;;;;;;;0.80;0.40;;;;;;;16.75;68.31;100574.66;4979999;28;20442;-71
2023/09/23 08:21:06;;;;;;;0.80;0.50;;;;;;;17.11;67.48;100584.19;4980489;28;20429;-72
2023/09/23 08:23:36;;;;;;;0.80;0.40;;;;;;;17.09;66.65;100587.16;4973596;28;20943;-72
2023/09/23 08:26:10;;;;;;;0.80;0.40;;;;;;;16.94;65.86;100579.59;4976069;28;20433;-71
2023/09/23 08:28:43;;;;;;;0.80;0.40;;;;;;;17.04;66.51;100589.03;4976748;28;20598;-70
2023/09/23 08:31:16;;;;;;;0.80;0.40;;;;;;;16.97;66.28;100602.03;4977660;28;20445;-72
2023/09/23 08:33:47;;;;;;;0.80;0.40;;;;;;;17.03;66.48;100609.25;4974476;28;20409;-72
2023/09/23 08:36:17;;;;;;;0.80;0.40;;;;;;;17.05;67.33;100613.34;4971111;28;20553;-72
2023/09/23 08:38:48;;;;;;;0.80;0.40;;;;;;;17.48;65.95;100623.50;4971293;28;20460;-71
2023/09/23 08:41:22;;;;;;;0.80;0.40;;;;;;;17.72;64.58;100632.31;4977264;28;20484;-70
2023/09/23 08:44:01;;;;;;;0.90;0.40;;;;;;;18.03;63.74;100623.38;4975180;28;20483;-72
2023/09/23 08:46:35;;;;;;;0.93;0.57;;;;;;;17.95;62.82;100628.50;4973062;28;20438;-71
2023/09/23 08:49:09;;;;;;;0.90;0.40;;;;;;;17.92;61.74;100629.00;4977123;28;20569;-72
2023/09/23 08:51:43;;;;;;;0.90;0.40;;;;;;;18.08;62.91;100639.03;4972326;28;20460;-72
2023/09/23 08:54:14;;;;;;;0.90;0.40;;;;;;;18.33;61.50;100653.00;4986307;28;20491;-72
2023/09/23 08:56:49;;;;;;;0.90;0.70;;;;;;;17.96;61.44;100663.00;4973350;28;20417;-71
2023/09/23 08:59:26;;;;;;;0.90;0.50;;;;;;;17.55;63.39;100662.47;4988025;28;20813;-69
2023/09/23 09:02:03;;;;;;;0.90;0.40;;;;;;;17.78;62.41;100673.19;4988031;28;20448;-72
2023/09/23 09:04:34;;;;;;;0.97;0.57;;;;;;;17.46;62.82;100664.00;4970984;28;20421;-73
2023/09/23 09:07:08;;;;;;;0.90;0.40;;;;;;;17.54;62.93;100665.44;4976542;28;20432;-70
2023/09/23 09:09:41;;;;;;;0.90;0.40;;;;;;;17.44;61.81;100665.31;4977363;28;20444;-72
2023/09/23 09:12:18;;;;;;;0.90;0.50;;;;;;;17.24;63.63;100671.31;4976733;28;20462;-72
2023/09/23 09:15:00;;;;;;;1.00;0.50;;;;;;;17.38;62.62;100686.28;4972363;28;20464;-72
2023/09/23 09:17:34;;;;;;;0.90;0.50;;;;;;;17.31;61.99;100693.88;4975397;28;20480;-72
2023/09/23 09:20:11;;;;;;;0.90;0.40;;;;;;;17.44;62.48;100687.19;4986870;28;20425;-70
2023/09/23 09:22:44;;;;;;;0.90;0.40;;;;;;;17.48;62.37;100691.91;4972045;28;20495;-72
2023/09/23 09:25:15;;;;;;;0.90;0.50;;;;;;;17.83;61.91;100696.22;4974907;28;20494;-72
2023/09/23 09:27:47;;;;;;;0.90;0.50;;;;;;;17.83;60.46;100698.97;4975030;28;20788;-72
2023/09/23 09:30:19;;;;;;;0.90;0.50;;;;;;;17.75;61.25;100706.56;4973400;28;20460;-70
2023/09/23 09:32:59;;;;;;;0.90;0.50;;;;;;;17.79;61.52;100715.91;4976744;28;20780;-72
2023/09/23 09:35:33;;;;;;;0.90;0.40;;;;;;;17.78;62.26;100714.25;4973535;28;20408;-71
2023/09/23 09:38:10;;;;;;;0.80;0.40;;;;;;;17.87;62.52;100713.78;4978203;28;20442;-72
2023/09/23 09:40:51;;;;;;;0.90;0.50;;;;;;;18.07;62.52;100709.41;4993768;28;20542;-72
2023/09/23 09:43:26;;;;;;;0.90;0.40;;;;;;;17.66;60.97;100710.81;4972256;28;20466;-71
2023/09/23 09:46:07;;;;;;;0.90;0.43;;;;;;;17.44;61.71;100718.13;4975918;28;20412;-70
2023/09/23 09:48:47;;;;;;;0.90;0.40;;;;;;;17.43;62.08;100715.66;4984081;28;20467;-72
2023/09/23 09:51:25;;;;;;;0.90;0.50;;;;;;;17.38;61.86;100708.16;4962622;28;20511;-70
2023/09/23 09:53:58;;;;;;;0.83;0.40;;;;;;;17.70;61.88;100714.69;4980095;28;20545;-70
2023/09/23 09:56:35;;;;;;;0.87;0.40;;;;;;;17.88;61.34;100715.47;4978655;28;20491;-70
2023/09/23 09:59:07;;;;;;;0.80;0.40;;;;;;;17.92;62.01;100714.69;4985763;28;20416;-68
2023/09/23 10:01:39;;;;;;;0.90;0.40;;;;;;;18.33;59.75;100718.75;4977674;28;20890;-71
2023/09/23 10:04:26;;;;;;;0.90;0.40;;;;;;;18.66;59.24;100718.56;4989565;28;20571;-71
2023/09/23 10:07:01;;;;;;;0.90;0.43;;;;;;;18.74;58.30;100730.13;4997023;28;20424;-68
2023/09/23 10:09:38;;;;;;;0.90;0.40;;;;;;;18.55;57.94;100725.03;5003879;28;20473;-70
2023/09/23 10:12:19;;;;;;;0.90;0.40;;;;;;;18.59;58.41;100728.06;5005101;28;20472;-70
2023/09/23 10:14:57;;;;;;;0.90;0.50;;;;;;;18.79;59.13;100738.41;4985208;28;20450;-71
2023/09/23 10:17:35;;;;;;;0.90;0.50;;;;;;;18.77;58.40;100732.38;4980486;28;20455;-71
2023/09/23 10:20:20;;;;;;;0.90;0.50;;;;;;;18.73;58.08;100725.75;4993845;28;20452;-71
2023/09/23 10:23:01;;;;;;;0.90;0.40;;;;;;;18.58;59.65;100732.75;4992664;28;20397;-72
2023/09/23 10:25:42;;;;;;;0.87;0.40;;;;;;;18.35;60.81;100723.97;4986505;28;20444;-68
2023/09/23 10:28:28;;;;;;;0.90;0.40;;;;;;;18.31;60.58;100731.03;4982701;28;20418;-71
2023/09/23 10:31:05;;;;;;;0.90;0.40;;;;;;;18.51;60.21;100734.81;4980791;28;20548;-71
2023/09/23 10:33:43;;;;;;;0.90;0.50;;;;;;;18.67;59.90;100733.94;4982634;28;20422;-69
2023/09/23 10:36:23;;;;;;;1.00;0.60;;;;;;;18.80;60.71;100737.31;4975659;28;20417;-70
2023/09/23 10:38:57;;;;;;;1.10;0.50;;;;;;;18.81;60.32;100736.25;4978886;28;20805;-70
2023/09/23 10:41:37;;;;;;;0.90;0.40;;;;;;;18.51;60.66;100740.31;4990791;28;20874;-71
2023/09/23 10:44:11;;;;;;;1.10;0.70;;;;;;;18.69;60.25;100739.13;4985116;28;20429;-70
2023/09/23 10:46:46;;;;;;;1.37;0.60;;;;;;;18.54;60.63;100741.75;4999459;28;20437;-70
2023/09/23 10:49:20;;;;;;;0.90;0.40;;;;;;;18.43;61.08;100734.47;4980795;28;20449;-70
2023/09/23 10:51:54;;;;;;;1.07;0.70;;;;;;;18.22;62.09;100744.38;4981799;28;20581;-71
2023/09/23 10:54:31;;;;;;;0.90;0.40;;;;;;;18.00;62.47;100746.28;4987386;28;20428;-72
2023/09/23 10:57:02;;;;;;;0.90;0.40;;;;;;;18.40;61.61;100745.91;4975064;28;20456;-69
2023/09/23 10:59:36;;;;;;;0.90;0.63;;;;;;;18.94;60.42;100757.75;4979053;28;20417;-69
2023/09/23 11:02:10;;;;;;;0.93;0.50;;;;;;;19.26;59.13;100749.53;4974348;28;20570;-70
2023/09/23 11:04:41;;;;;;;0.90;0.50;;;;;;;19.68;57.82;100755.03;4991333;28;20469;-70
2023/09/23 11:07:14;;;;;;;0.90;0.40;;;;;;;19.70;57.38;100752.88;4990816;28;20961;-70
2023/09/23 11:09:46;;;;;;;0.90;0.40;;;;;;;19.76;55.80;100754.53;4981296;28;20437;-71
2023/09/23 11:12:18;;;;;;;0.90;0.40;;;;;;;20.05;55.53;100743.97;4977457;28;20482;-70
2023/09/23 11:14:50;;;;;;;1.03;0.50;;;;;;;20.00;54.50;100750.25;4975576;28;20465;-71
2023/09/23 11:17:25;;;;;;;0.90;0.40;;;;;;;19.89;54.57;100743.91;4981724;28;20462;-70
2023/09/23 11:19:57;;;;;;;0.90;0.40;;;;;;;19.80;53.12;100733.72;4984954;28;20425;-70
2023/09/23 11:22:32;;;;;;;0.90;0.50;;;;;;;20.14;53.30;100739.63;4998450;28;20515;-71
2023/09/23 11:25:09;;;;;;;1.00;0.50;;;;;;;20.39;52.21;100747.97;4972029;28;20417;-71
2023/09/23 11:27:48;;;;;;;1.10;0.60;;;;;;;20.20;52.34;100757.75;4985096;28;20521;-70
2023/09/23 11:30:24;;;;;;;0.90;0.40;;;;;;;19.19;54.46;100760.72;4973753;28;20475;-71
2023/09/23 11:33:02;;;;;;;0.90;0.40;;;;;;;19.03;55.56;100772.63;4975189;28;20823;-72
2023/09/23 11:35:36;;;;;;;0.90;0.50;;;;;;;18.47;56.62;100758.34;4978105;28;20518;-71
2023/09/23 11:38:13;;;;;;;0.90;0.40;;;;;;;18.33;57.96;100762.59;4991482;28;20795;-71
2023/09/23 11:40:45;;;;;;;0.90;0.50;;;;;;;18.66;57.32;100773.38;4981106;28;21065;-71
2023/09/23 11:43:20;;;;;;;0.90;0.40;;;;;;;19.18;56.20;100778.25;4974365;28;20454;-71
2023/09/23 11:45:55;;;;;;;0.90;0.40;;;;;;;19.45;55.28;100770.00;4988398;28;20454;-69
2023/09/23 11:48:29;;;;;;;0.90;0.50;;;;;;;19.37;54.72;100764.94;4974952;28;20465;-72
2023/09/23 11:51:04;;;;;;;0.90;0.40;;;;;;;18.93;55.11;100767.03;4980972;28;20484;-70